sensor_id;sensor_type;location;lat;lon;timestamp;pressure;altitude;pressure_sealevel;temperature;humidity
15932;BME280;8065;49.520;11.284;2023-09-19T00:00:40;96985.19;;;20.89;90.09
15932;BME280;8065;49.520;11.284;2023-09-19T00:03:10;96986.00;;;20.82;90.03
15932;BME280;8065;49.520;11.284;2023-09-19T00:05:39;96992.19;;;20.83;89.70
15932;BME280;8065;49.520;11.284;2023-09-19T00:08:10;96995.25;;;20.85;89.74
15932;BME280;8065;49.520;11.284;2023-09-19T00:10:41;97000.66;;;20.85;89.82
15932;BME280;8065;49.520;11.284;2023-09-19T00:13:10;96993.78;;;20.77;89.96
15932;BME280;8065;49.520;11.284;2023-09-19T00:15:41;96991.50;;;20.75;90.25
15932;BME280;8065;49.520;11.284;2023-09-19T00:18:14;97002.31;;;20.72;90.41
15932;BME280;8065;49.520;11.284;2023-09-19T00:20:42;96998.06;;;20.74;89.72
15932;BME280;8065;49.520;11.284;2023-09-19T00:23:12;97003.09;;;20.72;89.33
15932;BME280;8065;49.520;11.284;2023-09-19T00:25:43;96997.75;;;20.61;89.60
15932;BME280;8065;49.520;11.284;2023-09-19T00:28:12;97000.06;;;20.63;89.67
15932;BME280;8065;49.520;11.284;2023-09-19T00:30:42;97002.41;;;20.57;90.00
15932;BME280;8065;49.520;11.284;2023-09-19T00:33:10;97008.19;;;20.59;89.37
15932;BME280;8065;49.520;11.284;2023-09-19T00:35:47;97013.94;;;20.61;89.31
15932;BME280;8065;49.520;11.284;2023-09-19T00:38:15;97013.16;;;20.65;89.52
15932;BME280;8065;49.520;11.284;2023-09-19T00:40:50;97006.22;;;20.64;89.26
15932;BME280;8065;49.520;11.284;2023-09-19T00:43:19;97012.03;;;20.58;89.13
15932;BME280;8065;49.520;11.284;2023-09-19T00:45:51;97017.41;;;20.62;88.94
15932;BME280;8065;49.520;11.284;2023-09-19T00:48:20;97009.72;;;20.57;88.79
15932;BME280;8065;49.520;11.284;2023-09-19T00:50:50;97014.75;;;20.55;89.33
15932;BME280;8065;49.520;11.284;2023-09-19T00:53:21;97025.94;;;20.53;89.21
15932;BME280;8065;49.520;11.284;2023-09-19T00:55:55;97024.81;;;20.51;89.13
15932;BME280;8065;49.520;11.284;2023-09-19T00:58:24;97033.66;;;20.51;88.79
15932;BME280;8065;49.520;11.284;2023-09-19T01:00:58;97024.78;;;20.54;88.81
15932;BME280;8065;49.520;11.284;2023-09-19T01:03:26;97025.56;;;20.51;88.71
15932;BME280;8065;49.520;11.284;2023-09-19T01:05:55;97034.47;;;20.48;89.11
15932;BME280;8065;49.520;11.284;2023-09-19T01:08:24;97037.94;;;20.49;88.80
15932;BME280;8065;49.520;11.284;2023-09-19T01:11:06;97035.63;;;20.47;89.61
15932;BME280;8065;49.520;11.284;2023-09-19T01:13:48;97042.19;;;20.46;89.63
15932;BME280;8065;49.520;11.284;2023-09-19T01:16:29;97043.69;;;20.51;88.86
15932;BME280;8065;49.520;11.284;2023-09-19T01:19:10;97041.78;;;20.48;88.74
15932;BME280;8065;49.520;11.284;2023-09-19T01:21:55;97048.75;;;20.45;88.51
15932;BME280;8065;49.520;11.284;2023-09-19T01:27:53;97053.38;;;20.41;89.01
15932;BME280;8065;49.520;11.284;2023-09-19T01:30:33;97051.84;;;20.40;88.47
15932;BME280;8065;49.520;11.284;2023-09-19T01:33:05;97051.84;;;20.40;88.85
15932;BME280;8065;49.520;11.284;2023-09-19T01:35:37;97048.00;;;20.41;88.82
15932;BME280;8065;49.520;11.284;2023-09-19T01:38:06;97048.38;;;20.36;88.73
15932;BME280;8065;49.520;11.284;2023-09-19T01:40:41;97046.44;;;20.33;88.94
15932;BME280;8065;49.520;11.284;2023-09-19T01:43:15;97055.72;;;20.32;88.84
15932;BME280;8065;49.520;11.284;2023-09-19T01:45:55;97046.44;;;20.33;88.62
15932;BME280;8065;49.520;11.284;2023-09-19T01:48:34;97049.53;;;20.32;88.52
15932;BME280;8065;49.520;11.284;2023-09-19T01:51:06;97048.00;;;20.30;88.69
15932;BME280;8065;49.520;11.284;2023-09-19T01:53:39;97054.94;;;20.28;88.95
15932;BME280;8065;49.520;11.284;2023-09-19T01:56:14;97051.13;;;20.18;89.00
15932;BME280;8065;49.520;11.284;2023-09-19T01:58:46;97047.69;;;20.07;89.79
15932;BME280;8065;49.520;11.284;2023-09-19T02:01:20;97052.75;;;19.94;90.05
15932;BME280;8065;49.520;11.284;2023-09-19T02:03:50;97045.47;;;19.84;90.82
15932;BME280;8065;49.520;11.284;2023-09-19T02:06:19;97049.34;;;19.80;91.20
15932;BME280;8065;49.520;11.284;2023-09-19T02:08:47;97058.56;;;19.82;91.48
15932;BME280;8065;49.520;11.284;2023-09-19T02:11:16;97062.06;;;19.72;91.72
15932;BME280;8065;49.520;11.284;2023-09-19T02:16:19;97066.69;;;19.64;92.82
15932;BME280;8065;49.520;11.284;2023-09-19T02:18:47;97062.06;;;19.69;92.84
15932;BME280;8065;49.520;11.284;2023-09-19T02:21:16;97068.22;;;19.69;92.37
15932;BME280;8065;49.520;11.284;2023-09-19T02:23:47;97061.69;;;19.70;92.25
15932;BME280;8065;49.520;11.284;2023-09-19T02:26:17;97058.97;;;19.70;92.44
15932;BME280;8065;49.520;11.284;2023-09-19T02:28:45;97059.38;;;19.69;92.39
15932;BME280;8065;49.520;11.284;2023-09-19T02:31:14;97062.81;;;19.69;92.29
15932;BME280;8065;49.520;11.284;2023-09-19T02:33:44;97063.22;;;19.64;92.93
15932;BME280;8065;49.520;11.284;2023-09-19T02:36:13;97066.69;;;19.61;93.28
15932;BME280;8065;49.520;11.284;2023-09-19T02:38:42;97068.22;;;19.62;93.00
15932;BME280;8065;49.520;11.284;2023-09-19T02:41:11;97076.31;;;19.58;93.74
15932;BME280;8065;49.520;11.284;2023-09-19T02:43:39;97080.56;;;19.63;93.47
15932;BME280;8065;49.520;11.284;2023-09-19T02:46:08;97078.25;;;19.65;93.10
15932;BME280;8065;49.520;11.284;2023-09-19T02:48:37;97081.69;;;19.69;93.05
15932;BME280;8065;49.520;11.284;2023-09-19T02:51:08;97090.56;;;19.73;92.57
15932;BME280;8065;49.520;11.284;2023-09-19T02:53:37;97099.03;;;19.72;93.17
15932;BME280;8065;49.520;11.284;2023-09-19T02:56:05;97092.09;;;19.67;92.98
15932;BME280;8065;49.520;11.284;2023-09-19T02:58:35;97089.41;;;19.67;93.38
15932;BME280;8065;49.520;11.284;2023-09-19T03:01:08;97087.47;;;19.71;92.87
15932;BME280;8065;49.520;11.284;2023-09-19T03:03:38;97089.78;;;19.73;93.47
15932;BME280;8065;49.520;11.284;2023-09-19T03:06:09;97089.41;;;19.74;93.29
15932;BME280;8065;49.520;11.284;2023-09-19T03:08:39;97092.09;;;19.74;93.11
15932;BME280;8065;49.520;11.284;2023-09-19T03:11:10;97102.88;;;19.74;93.56
15932;BME280;8065;49.520;11.284;2023-09-19T03:13:41;97103.66;;;19.71;93.63
15932;BME280;8065;49.520;11.284;2023-09-19T03:16:11;97101.34;;;19.70;93.16
15932;BME280;8065;49.520;11.284;2023-09-19T03:18:40;97103.66;;;19.71;93.68
15932;BME280;8065;49.520;11.284;2023-09-19T03:21:11;97101.72;;;19.75;93.21
15932;BME280;8065;49.520;11.284;2023-09-19T03:23:40;97098.25;;;19.78;93.20
15932;BME280;8065;49.520;11.284;2023-09-19T03:26:08;97103.66;;;19.85;92.94
15932;BME280;8065;49.520;11.284;2023-09-19T03:28:37;97100.94;;;19.92;92.60
15932;BME280;8065;49.520;11.284;2023-09-19T03:31:06;97102.88;;;19.88;91.63
15932;BME280;8065;49.520;11.284;2023-09-19T03:33:35;97097.84;;;19.90;91.20
15932;BME280;8065;49.520;11.284;2023-09-19T03:36:05;97092.03;;;19.99;90.85
15932;BME280;8065;49.520;11.284;2023-09-19T03:38:36;97103.22;;;19.97;90.27
15932;BME280;8065;49.520;11.284;2023-09-19T03:41:04;97099.75;;;20.01;90.18
15932;BME280;8065;49.520;11.284;2023-09-19T03:43:32;97105.13;;;20.01;89.57
15932;BME280;8065;49.520;11.284;2023-09-19T03:46:01;97102.06;;;19.98;89.67
15932;BME280;8065;49.520;11.284;2023-09-19T03:48:30;97104.38;;;19.96;89.16
15932;BME280;8065;49.520;11.284;2023-09-19T03:50:59;97099.38;;;19.95;88.96
15932;BME280;8065;49.520;11.284;2023-09-19T03:53:27;97105.53;;;19.95;89.00
15932;BME280;8065;49.520;11.284;2023-09-19T03:55:58;97113.28;;;19.90;88.94
15932;BME280;8065;49.520;11.284;2023-09-19T03:58:26;97112.13;;;19.91;88.73
15932;BME280;8065;49.520;11.284;2023-09-19T04:00:55;97112.13;;;19.87;88.65
15932;BME280;8065;49.520;11.284;2023-09-19T04:03:23;97109.81;;;19.82;89.07
15932;BME280;8065;49.520;11.284;2023-09-19T04:06:00;97115.19;;;19.82;88.71
15932;BME280;8065;49.520;11.284;2023-09-19T04:08:28;97117.53;;;19.77;88.34
15932;BME280;8065;49.520;11.284;2023-09-19T04:10:59;97118.28;;;19.77;88.11
15932;BME280;8065;49.520;11.284;2023-09-19T04:13:27;97117.13;;;19.71;88.48
15932;BME280;8065;49.520;11.284;2023-09-19T04:15:56;97119.84;;;19.68;88.65
15932;BME280;8065;49.520;11.284;2023-09-19T04:18:25;97126.00;;;19.61;88.92
15932;BME280;8065;49.520;11.284;2023-09-19T04:20:53;97131.38;;;19.54;88.65
15932;BME280;8065;49.520;11.284;2023-09-19T04:23:21;97136.00;;;19.57;88.74
15932;BME280;8065;49.520;11.284;2023-09-19T04:25:50;97135.25;;;19.56;88.99
15932;BME280;8065;49.520;11.284;2023-09-19T04:28:21;97139.84;;;19.52;89.08
15932;BME280;8065;49.520;11.284;2023-09-19T04:30:49;97151.03;;;19.58;88.75
15932;BME280;8065;49.520;11.284;2023-09-19T04:33:18;97148.72;;;19.60;88.80
15932;BME280;8065;49.520;11.284;2023-09-19T04:35:49;97149.88;;;19.59;88.80
15932;BME280;8065;49.520;11.284;2023-09-19T04:38:17;97138.72;;;19.57;89.08
15932;BME280;8065;49.520;11.284;2023-09-19T04:40:46;97153.72;;;19.58;88.71
15932;BME280;8065;49.520;11.284;2023-09-19T04:43:14;97149.88;;;19.52;88.83
15932;BME280;8065;49.520;11.284;2023-09-19T04:45:45;97149.88;;;19.59;89.14
15932;BME280;8065;49.520;11.284;2023-09-19T04:48:14;97160.28;;;19.60;89.17
15932;BME280;8065;49.520;11.284;2023-09-19T04:50:43;97155.25;;;19.66;88.77
15932;BME280;8065;49.520;11.284;2023-09-19T04:53:11;97155.66;;;19.75;88.33
15932;BME280;8065;49.520;11.284;2023-09-19T04:55:40;97167.59;;;19.74;88.17
15932;BME280;8065;49.520;11.284;2023-09-19T04:58:08;97153.72;;;19.76;88.08
15932;BME280;8065;49.520;11.284;2023-09-19T05:00:36;97159.88;;;19.73;88.63
15932;BME280;8065;49.520;11.284;2023-09-19T05:03:07;97168.75;;;19.73;88.70
15932;BME280;8065;49.520;11.284;2023-09-19T05:05:36;97168.38;;;19.78;87.90
15932;BME280;8065;49.520;11.284;2023-09-19T05:08:07;97171.44;;;19.80;88.36
15932;BME280;8065;49.520;11.284;2023-09-19T05:10:36;97172.59;;;19.79;88.10
15932;BME280;8065;49.520;11.284;2023-09-19T05:13:06;97180.69;;;19.72;88.82
15932;BME280;8065;49.520;11.284;2023-09-19T05:15:35;97176.06;;;19.69;88.97
15932;BME280;8065;49.520;11.284;2023-09-19T05:18:07;97175.31;;;19.72;88.94
15932;BME280;8065;49.520;11.284;2023-09-19T05:20:36;97176.84;;;19.73;88.63
15932;BME280;8065;49.520;11.284;2023-09-19T05:23:05;97186.09;;;19.65;89.07
15932;BME280;8065;49.520;11.284;2023-09-19T05:25:35;97182.22;;;19.66;89.10
15932;BME280;8065;49.520;11.284;2023-09-19T05:28:05;97179.91;;;19.68;88.80
15932;BME280;8065;49.520;11.284;2023-09-19T05:30:34;97179.91;;;19.72;89.45
15932;BME280;8065;49.520;11.284;2023-09-19T05:33:06;97192.25;;;19.69;89.68
15932;BME280;8065;49.520;11.284;2023-09-19T05:35:35;97194.56;;;19.74;89.48
15932;BME280;8065;49.520;11.284;2023-09-19T05:38:05;97189.16;;;19.74;89.23
15932;BME280;8065;49.520;11.284;2023-09-19T05:40:34;97192.25;;;19.76;89.48
15932;BME280;8065;49.520;11.284;2023-09-19T05:43:03;97198.41;;;19.77;89.66
15932;BME280;8065;49.520;11.284;2023-09-19T05:45:32;97187.63;;;19.77;89.57
15932;BME280;8065;49.520;11.284;2023-09-19T05:48:10;97191.47;;;19.86;89.13
15932;BME280;8065;49.520;11.284;2023-09-19T05:50:40;97202.28;;;19.90;88.85
15932;BME280;8065;49.520;11.284;2023-09-19T05:53:08;97196.09;;;19.93;88.57
15932;BME280;8065;49.520;11.284;2023-09-19T05:55:39;97201.88;;;19.91;88.66
15932;BME280;8065;49.520;11.284;2023-09-19T05:58:08;97206.13;;;19.92;88.59
15932;BME280;8065;49.520;11.284;2023-09-19T06:00:39;97211.09;;;19.97;88.73
15932;BME280;8065;49.520;11.284;2023-09-19T06:03:12;97208.81;;;19.92;89.08
15932;BME280;8065;49.520;11.284;2023-09-19T06:05:42;97217.28;;;19.94;88.47
15932;BME280;8065;49.520;11.284;2023-09-19T06:08:11;97226.13;;;19.95;88.63
15932;BME280;8065;49.520;11.284;2023-09-19T06:10:40;97226.13;;;19.98;88.96
15932;BME280;8065;49.520;11.284;2023-09-19T06:13:08;97233.06;;;20.00;88.78
15932;BME280;8065;49.520;11.284;2023-09-19T06:15:37;97228.06;;;20.02;88.40
15932;BME280;8065;49.520;11.284;2023-09-19T06:18:13;97233.06;;;20.00;88.30
15932;BME280;8065;49.520;11.284;2023-09-19T06:20:45;97230.75;;;20.02;88.17
15932;BME280;8065;49.520;11.284;2023-09-19T06:23:14;97231.53;;;20.09;88.13
15932;BME280;8065;49.520;11.284;2023-09-19T06:25:42;97235.00;;;20.06;88.03
15932;BME280;8065;49.520;11.284;2023-09-19T06:28:11;97240.00;;;20.08;88.31
15932;BME280;8065;49.520;11.284;2023-09-19T06:30:42;97239.63;;;20.13;88.10
15932;BME280;8065;49.520;11.284;2023-09-19T06:33:13;97236.16;;;20.16;87.59
15932;BME280;8065;49.520;11.284;2023-09-19T06:35:42;97240.00;;;20.15;88.58
15932;BME280;8065;49.520;11.284;2023-09-19T06:38:12;97238.84;;;20.23;87.91
15932;BME280;8065;49.520;11.284;2023-09-19T06:40:41;97236.91;;;20.27;88.06
15932;BME280;8065;49.520;11.284;2023-09-19T06:43:10;97240.78;;;20.33;87.70
15932;BME280;8065;49.520;11.284;2023-09-19T06:45:39;97248.50;;;20.31;87.76
15932;BME280;8065;49.520;11.284;2023-09-19T06:48:07;97239.22;;;20.32;87.52
15932;BME280;8065;49.520;11.284;2023-09-19T06:50:40;97252.34;;;20.30;87.58
15932;BME280;8065;49.520;11.284;2023-09-19T06:53:10;97246.94;;;20.37;87.78
15932;BME280;8065;49.520;11.284;2023-09-19T06:55:38;97244.66;;;20.43;87.76
15932;BME280;8065;49.520;11.284;2023-09-19T06:58:09;97248.88;;;20.47;87.01
15932;BME280;8065;49.520;11.284;2023-09-19T07:00:37;97253.91;;;20.49;87.28
15932;BME280;8065;49.520;11.284;2023-09-19T07:03:07;97249.66;;;20.48;87.68
15932;BME280;8065;49.520;11.284;2023-09-19T07:05:40;97254.66;;;20.56;87.33
15932;BME280;8065;49.520;11.284;2023-09-19T07:08:09;97265.84;;;20.62;87.04
15932;BME280;8065;49.520;11.284;2023-09-19T07:10:39;97262.75;;;20.64;87.51
15932;BME280;8065;49.520;11.284;2023-09-19T07:13:10;97262.31;;;20.79;86.54
15932;BME280;8065;49.520;11.284;2023-09-19T07:15:39;97266.13;;;20.96;86.72
15932;BME280;8065;49.520;11.284;2023-09-19T07:18:12;97270.31;;;21.11;85.91
15932;BME280;8065;49.520;11.284;2023-09-19T07:20:45;97276.84;;;21.17;85.29
15932;BME280;8065;49.520;11.284;2023-09-19T07:23:15;97275.28;;;21.27;84.10
15932;BME280;8065;49.520;11.284;2023-09-19T07:25:43;97281.03;;;21.40;83.62
15932;BME280;8065;49.520;11.284;2023-09-19T07:28:12;97283.75;;;21.40;81.75
15932;BME280;8065;49.520;11.284;2023-09-19T07:30:41;97287.53;;;21.56;81.33
15932;BME280;8065;49.520;11.284;2023-09-19T07:33:09;97290.69;;;21.41;79.96
15932;BME280;8065;49.520;11.284;2023-09-19T07:35:38;97297.09;;;21.68;80.02
15932;BME280;8065;49.520;11.284;2023-09-19T07:38:10;97290.13;;;21.67;76.56
15932;BME280;8065;49.520;11.284;2023-09-19T07:40:38;97301.63;;;21.85;75.13
15932;BME280;8065;49.520;11.284;2023-09-19T07:43:07;97300.84;;;21.88;74.50
15932;BME280;8065;49.520;11.284;2023-09-19T07:45:35;97298.81;;;22.07;74.93
15932;BME280;8065;49.520;11.284;2023-09-19T07:48:04;97302.72;;;21.99;72.20
15932;BME280;8065;49.520;11.284;2023-09-19T07:50:39;97301.16;;;22.01;72.35
15932;BME280;8065;49.520;11.284;2023-09-19T07:53:11;97305.91;;;21.79;70.43
15932;BME280;8065;49.520;11.284;2023-09-19T07:55:40;97306.75;;;21.69;68.54
15932;BME280;8065;49.520;11.284;2023-09-19T07:58:13;97309.41;;;21.76;69.12
15932;BME280;8065;49.520;11.284;2023-09-19T08:00:41;97311.69;;;21.81;69.19
15932;BME280;8065;49.520;11.284;2023-09-19T08:03:10;97323.66;;;21.87;69.64
15932;BME280;8065;49.520;11.284;2023-09-19T08:05:40;97317.50;;;21.83;69.13
15932;BME280;8065;49.520;11.284;2023-09-19T08:08:11;97318.25;;;21.87;69.64
15932;BME280;8065;49.520;11.284;2023-09-19T08:10:40;97324.41;;;21.91;70.96
15932;BME280;8065;49.520;11.284;2023-09-19T08:13:10;97313.13;;;22.04;70.48
15932;BME280;8065;49.520;11.284;2023-09-19T08:15:43;97313.06;;;22.14;70.58
15932;BME280;8065;49.520;11.284;2023-09-19T08:18:12;97314.91;;;22.28;70.12
15932;BME280;8065;49.520;11.284;2023-09-19T08:20:40;97320.63;;;22.37;70.13
15932;BME280;8065;49.520;11.284;2023-09-19T08:23:14;97315.88;;;22.52;69.77
15932;BME280;8065;49.520;11.284;2023-09-19T08:25:43;97317.69;;;22.62;68.57
15932;BME280;8065;49.520;11.284;2023-09-19T08:28:11;97326.09;;;22.75;68.92
15932;BME280;8065;49.520;11.284;2023-09-19T08:30:45;97326.47;;;22.80;67.56
15932;BME280;8065;49.520;11.284;2023-09-19T08:33:13;97324.44;;;22.88;67.03
15932;BME280;8065;49.520;11.284;2023-09-19T08:35:43;97327.97;;;22.85;66.40
15932;BME280;8065;49.520;11.284;2023-09-19T08:38:14;97329.97;;;22.74;65.79
15932;BME280;8065;49.520;11.284;2023-09-19T08:40:42;97336.16;;;22.74;65.07
15932;BME280;8065;49.520;11.284;2023-09-19T08:43:10;97340.41;;;22.75;65.57
15932;BME280;8065;49.520;11.284;2023-09-19T08:45:38;97347.56;;;23.00;66.00
15932;BME280;8065;49.520;11.284;2023-09-19T08:48:22;97347.97;;;23.36;65.44
15932;BME280;8065;49.520;11.284;2023-09-19T08:50:54;97350.13;;;23.48;63.27
15932;BME280;8065;49.520;11.284;2023-09-19T08:53:32;97347.34;;;23.85;62.75
15932;BME280;8065;49.520;11.284;2023-09-19T08:56:03;97349.31;;;24.12;62.39
15932;BME280;8065;49.520;11.284;2023-09-19T08:58:51;97357.41;;;24.15;62.56
15932;BME280;8065;49.520;11.284;2023-09-19T09:01:22;97359.41;;;24.11;61.70
15932;BME280;8065;49.520;11.284;2023-09-19T09:03:51;97354.69;;;24.15;61.54
15932;BME280;8065;49.520;11.284;2023-09-19T09:06:21;97357.03;;;24.13;61.45
15932;BME280;8065;49.520;11.284;2023-09-19T09:08:53;97361.81;;;24.06;61.61
15932;BME280;8065;49.520;11.284;2023-09-19T09:11:21;97353.91;;;23.88;61.18
15932;BME280;8065;49.520;11.284;2023-09-19T09:13:53;97358.97;;;23.86;61.01
15932;BME280;8065;49.520;11.284;2023-09-19T09:16:22;97356.66;;;23.84;61.00
15932;BME280;8065;49.520;11.284;2023-09-19T09:18:51;97366.06;;;23.76;61.11
15932;BME280;8065;49.520;11.284;2023-09-19T09:21:20;97367.03;;;23.63;61.53
15932;BME280;8065;49.520;11.284;2023-09-19T09:23:52;97362.47;;;23.52;61.79
15932;BME280;8065;49.520;11.284;2023-09-19T09:26:40;97366.94;;;23.36;62.16
15932;BME280;8065;49.520;11.284;2023-09-19T09:29:09;97363.13;;;23.30;61.93
15932;BME280;8065;49.520;11.284;2023-09-19T09:31:37;97372.97;;;23.16;63.12
15932;BME280;8065;49.520;11.284;2023-09-19T09:34:08;97370.25;;;23.16;63.82
15932;BME280;8065;49.520;11.284;2023-09-19T09:36:39;97372.16;;;23.19;64.30
15932;BME280;8065;49.520;11.284;2023-09-19T09:39:14;97369.72;;;23.29;63.83
15932;BME280;8065;49.520;11.284;2023-09-19T09:41:50;97381.31;;;23.33;64.26
15932;BME280;8065;49.520;11.284;2023-09-19T09:44:18;97380.53;;;23.32;63.17
15932;BME280;8065;49.520;11.284;2023-09-19T09:46:47;97385.19;;;23.32;63.69
15932;BME280;8065;49.520;11.284;2023-09-19T09:49:40;97392.22;;;23.26;63.48
15932;BME280;8065;49.520;11.284;2023-09-19T09:52:15;97387.97;;;23.25;63.65
15932;BME280;8065;49.520;11.284;2023-09-19T09:55:01;97388.53;;;23.43;63.71
15932;BME280;8065;49.520;11.284;2023-09-19T09:57:31;97391.16;;;23.50;63.18
15932;BME280;8065;49.520;11.284;2023-09-19T10:00:00;97386.41;;;23.61;62.00
15932;BME280;8065;49.520;11.284;2023-09-19T10:02:45;97385.72;;;23.88;61.75
15932;BME280;8065;49.520;11.284;2023-09-19T10:05:15;97391.91;;;23.88;61.55
15932;BME280;8065;49.520;11.284;2023-09-19T10:07:47;97399.38;;;23.80;60.68
15932;BME280;8065;49.520;11.284;2023-09-19T10:10:35;97404.00;;;23.83;60.14
15932;BME280;8065;49.520;11.284;2023-09-19T10:13:19;97406.97;;;23.93;60.29
15932;BME280;8065;49.520;11.284;2023-09-19T10:15:49;97400.91;;;23.81;58.90
15932;BME280;8065;49.520;11.284;2023-09-19T10:18:21;97401.81;;;24.02;58.49
15932;BME280;8065;49.520;11.284;2023-09-19T10:20:51;97395.00;;;24.17;59.31
15932;BME280;8065;49.520;11.284;2023-09-19T10:23:21;97387.75;;;24.37;58.22
15932;BME280;8065;49.520;11.284;2023-09-19T10:25:53;97381.28;;;24.55;57.96
15932;BME280;8065;49.520;11.284;2023-09-19T10:28:22;97388.50;;;24.88;58.20
15932;BME280;8065;49.520;11.284;2023-09-19T10:30:52;97383.19;;;25.04;57.20
15932;BME280;8065;49.520;11.284;2023-09-19T10:33:23;97388.00;;;25.16;57.95
15932;BME280;8065;49.520;11.284;2023-09-19T10:35:53;97372.03;;;24.99;56.93
15932;BME280;8065;49.520;11.284;2023-09-19T10:38:23;97376.63;;;25.02;56.58
15932;BME280;8065;49.520;11.284;2023-09-19T10:40:56;97381.47;;;24.91;55.70
15932;BME280;8065;49.520;11.284;2023-09-19T10:43:29;97377.75;;;24.81;56.93
15932;BME280;8065;49.520;11.284;2023-09-19T10:46:02;97390.72;;;24.46;57.15
15932;BME280;8065;49.520;11.284;2023-09-19T10:48:31;97387.38;;;24.62;57.56
15932;BME280;8065;49.520;11.284;2023-09-19T10:51:04;97378.66;;;24.98;57.41
15932;BME280;8065;49.520;11.284;2023-09-19T10:53:42;97382.72;;;25.09;56.99
15932;BME280;8065;49.520;11.284;2023-09-19T10:56:17;97385.44;;;25.09;57.31
15932;BME280;8065;49.520;11.284;2023-09-19T10:58:47;97386.06;;;25.37;57.44
15932;BME280;8065;49.520;11.284;2023-09-19T11:01:16;97382.91;;;25.19;57.97
15932;BME280;8065;49.520;11.284;2023-09-19T11:03:45;97382.56;;;25.16;57.41
15932;BME280;8065;49.520;11.284;2023-09-19T11:06:16;97387.38;;;25.29;56.97
15932;BME280;8065;49.520;11.284;2023-09-19T11:08:55;97378.41;;;25.32;56.73
15932;BME280;8065;49.520;11.284;2023-09-19T11:11:43;97369.06;;;25.53;56.57
15932;BME280;8065;49.520;11.284;2023-09-19T11:14:40;97367.25;;;25.86;56.36
15932;BME280;8065;49.520;11.284;2023-09-19T11:17:40;97374.75;;;25.98;56.20
15932;BME280;8065;49.520;11.284;2023-09-19T11:20:23;97362.34;;;26.29;56.22
15932;BME280;8065;49.520;11.284;2023-09-19T11:23:22;97365.28;;;26.71;55.43
15932;BME280;8065;49.520;11.284;2023-09-19T11:25:52;97358.81;;;26.49;54.23
15932;BME280;8065;49.520;11.284;2023-09-19T11:28:33;97359.69;;;26.45;54.79
15932;BME280;8065;49.520;11.284;2023-09-19T11:36:57;97352.91;;;26.18;55.79
15932;BME280;8065;49.520;11.284;2023-09-19T11:39:26;97356.69;;;25.88;56.79
15932;BME280;8065;49.520;11.284;2023-09-19T11:41:55;97370.41;;;25.64;57.14
15932;BME280;8065;49.520;11.284;2023-09-19T11:44:35;97380.44;;;25.87;56.81
15932;BME280;8065;49.520;11.284;2023-09-19T11:47:06;97369.13;;;26.05;56.71
15932;BME280;8065;49.520;11.284;2023-09-19T11:49:40;97366.69;;;26.27;56.33
15932;BME280;8065;49.520;11.284;2023-09-19T11:52:08;97362.88;;;26.24;56.20
15932;BME280;8065;49.520;11.284;2023-09-19T11:54:40;97359.09;;;26.02;55.09
15932;BME280;8065;49.520;11.284;2023-09-19T11:57:20;97361.41;;;25.67;54.95
15932;BME280;8065;49.520;11.284;2023-09-19T11:59:51;97371.22;;;25.61;55.01
15932;BME280;8065;49.520;11.284;2023-09-19T12:02:34;97365.16;;;25.73;55.31
15932;BME280;8065;49.520;11.284;2023-09-19T12:05:08;97362.00;;;25.35;54.59
15932;BME280;8065;49.520;11.284;2023-09-19T12:07:42;97363.78;;;25.65;54.51
15932;BME280;8065;49.520;11.284;2023-09-19T12:10:11;97361.25;;;25.74;54.88
15932;BME280;8065;49.520;11.284;2023-09-19T12:12:47;97366.53;;;25.42;54.78
15932;BME280;8065;49.520;11.284;2023-09-19T12:15:22;97354.06;;;25.64;55.36
15932;BME280;8065;49.520;11.284;2023-09-19T12:17:54;97357.81;;;25.90;54.80
15932;BME280;8065;49.520;11.284;2023-09-19T12:20:22;97353.81;;;25.95;53.13
15932;BME280;8065;49.520;11.284;2023-09-19T12:22:51;97354.25;;;26.09;51.95
15932;BME280;8065;49.520;11.284;2023-09-19T12:25:19;97356.56;;;26.27;52.06
15932;BME280;8065;49.520;11.284;2023-09-19T12:27:48;97348.41;;;26.27;51.79
15932;BME280;8065;49.520;11.284;2023-09-19T12:30:27;97363.56;;;26.28;50.92
15932;BME280;8065;49.520;11.284;2023-09-19T12:32:58;97353.81;;;26.11;51.12
15932;BME280;8065;49.520;11.284;2023-09-19T12:35:29;97340.78;;;26.02;51.14
15932;BME280;8065;49.520;11.284;2023-09-19T12:38:00;97370.47;;;25.80;51.37
15932;BME280;8065;49.520;11.284;2023-09-19T12:40:29;97368.94;;;25.79;50.69
15932;BME280;8065;49.520;11.284;2023-09-19T12:43:01;97359.22;;;25.78;50.39
15932;BME280;8065;49.520;11.284;2023-09-19T12:45:33;97354.63;;;25.75;50.33
15932;BME280;8065;49.520;11.284;2023-09-19T12:48:20;97353.34;;;25.60;50.15
15932;BME280;8065;49.520;11.284;2023-09-19T12:51:05;97348.69;;;25.80;50.66
15932;BME280;8065;49.520;11.284;2023-09-19T12:53:39;97351.34;;;25.64;51.14
15932;BME280;8065;49.520;11.284;2023-09-19T12:56:09;97347.78;;;25.67;51.13
15932;BME280;8065;49.520;11.284;2023-09-19T12:58:49;97338.91;;;25.63;50.80
15932;BME280;8065;49.520;11.284;2023-09-19T13:01:22;97353.69;;;25.62;51.23
15932;BME280;8065;49.520;11.284;2023-09-19T13:04:10;97347.56;;;25.58;50.77
15932;BME280;8065;49.520;11.284;2023-09-19T13:06:43;97350.22;;;25.82;50.66
15932;BME280;8065;49.520;11.284;2023-09-19T13:09:14;97348.78;;;25.93;50.14
15932;BME280;8065;49.520;11.284;2023-09-19T13:11:43;97350.44;;;25.71;50.78
15932;BME280;8065;49.520;11.284;2023-09-19T13:14:15;97351.34;;;25.64;50.80
15932;BME280;8065;49.520;11.284;2023-09-19T13:17:00;97356.97;;;25.54;51.01
15932;BME280;8065;49.520;11.284;2023-09-19T13:19:37;97350.06;;;25.49;50.97
15932;BME280;8065;49.520;11.284;2023-09-19T13:22:36;97344.34;;;25.63;50.43
15932;BME280;8065;49.520;11.284;2023-09-19T13:25:08;97344.84;;;25.78;51.65
15932;BME280;8065;49.520;11.284;2023-09-19T13:27:40;97339.81;;;25.37;51.24
15932;BME280;8065;49.520;11.284;2023-09-19T13:30:10;97336.47;;;25.49;50.57
15932;BME280;8065;49.520;11.284;2023-09-19T13:32:42;97341.50;;;25.51;50.98
15932;BME280;8065;49.520;11.284;2023-09-19T13:35:12;97332.06;;;25.55;50.93